Asharoken, New York
Current Conditions -  °F | °C
As of 6:53 AM on Thursday 27 Nov 2014 (Local Time) from KFRG Reporting Station
Overcast Overcast  
Wind Chill: 32°   Ceiling: 3800
Heat Index: 37°   Visibility: 10mi
Dew Point: 29°   Wind: 7mph
Humidity: 73%   Direction: 310°NW
Pressure: 29.95"   Gusts: NA
Location:  40.9096°N, 73.3231°W
Report Text: KFRG 271153Z 31006KT 10SM OVC038 03/M02 A2995 RMK AO2 SLP143 60001 70093 T00281017 10028 20022 51020
Loading
Personal Weather Stations






























Interactive Weather Map New forecast layout! Learn more

10-Day Weather Forecast

Advertisements
Track Severe Weather on mobile